sensor_id;sensor_type;location;lat;lon;timestamp;P1;durP1;ratioP1;P2;durP2;ratioP2
22947;SDS011;11640;52.520;13.456;2022-08-19T00:04:36;18.60;;;16.80;;
22947;SDS011;11640;52.520;13.456;2022-08-19T00:09:38;17.98;;;16.25;;
22947;SDS011;11640;52.520;13.456;2022-08-19T00:14:40;19.30;;;17.42;;
22947;SDS011;11640;52.520;13.456;2022-08-19T00:19:42;18.33;;;16.50;;
22947;SDS011;11640;52.520;13.456;2022-08-19T00:24:44;18.90;;;17.10;;
22947;SDS011;11640;52.520;13.456;2022-08-19T00:29:51;18.58;;;16.88;;
22947;SDS011;11640;52.520;13.456;2022-08-19T00:34:53;19.65;;;17.65;;
22947;SDS011;11640;52.520;13.456;2022-08-19T00:39:55;19.98;;;17.90;;
22947;SDS011;11640;52.520;13.456;2022-08-19T00:44:57;21.30;;;19.13;;
22947;SDS011;11640;52.520;13.456;2022-08-19T00:49:59;19.73;;;17.30;;
22947;SDS011;11640;52.520;13.456;2022-08-19T00:55:05;21.80;;;19.58;;
22947;SDS011;11640;52.520;13.456;2022-08-19T01:00:14;22.85;;;20.60;;
22947;SDS011;11640;52.520;13.456;2022-08-19T01:05:23;22.98;;;20.73;;
22947;SDS011;11640;52.520;13.456;2022-08-19T01:10:29;24.45;;;22.00;;
22947;SDS011;11640;52.520;13.456;2022-08-19T01:15:49;25.57;;;22.90;;
22947;SDS011;11640;52.520;13.456;2022-08-19T01:20:57;24.80;;;22.33;;
22947;SDS011;11640;52.520;13.456;2022-08-19T01:26:03;26.25;;;23.63;;
22947;SDS011;11640;52.520;13.456;2022-08-19T01:31:06;25.15;;;22.77;;
22947;SDS011;11640;52.520;13.456;2022-08-19T01:36:30;25.15;;;22.65;;
22947;SDS011;11640;52.520;13.456;2022-08-19T01:41:40;27.08;;;24.20;;
22947;SDS011;11640;52.520;13.456;2022-08-19T01:46:42;26.80;;;24.10;;
22947;SDS011;11640;52.520;13.456;2022-08-19T01:51:45;27.50;;;24.60;;
22947;SDS011;11640;52.520;13.456;2022-08-19T01:56:51;26.52;;;23.83;;
22947;SDS011;11640;52.520;13.456;2022-08-19T02:01:56;26.50;;;23.80;;
22947;SDS011;11640;52.520;13.456;2022-08-19T02:06:58;32.38;;;27.50;;
22947;SDS011;11640;52.520;13.456;2022-08-19T02:12:00;52.80;;;33.67;;
22947;SDS011;11640;52.520;13.456;2022-08-19T02:17:02;38.42;;;34.47;;
22947;SDS011;11640;52.520;13.456;2022-08-19T02:22:05;35.00;;;31.40;;
22947;SDS011;11640;52.520;13.456;2022-08-19T02:27:09;36.85;;;32.97;;
22947;SDS011;11640;52.520;13.456;2022-08-19T02:32:12;38.20;;;34.28;;
22947;SDS011;11640;52.520;13.456;2022-08-19T02:37:14;37.65;;;33.65;;
22947;SDS011;11640;52.520;13.456;2022-08-19T02:42:44;37.57;;;33.93;;
22947;SDS011;11640;52.520;13.456;2022-08-19T02:47:47;39.95;;;35.85;;
22947;SDS011;11640;52.520;13.456;2022-08-19T02:52:52;37.67;;;33.83;;
22947;SDS011;11640;52.520;13.456;2022-08-19T02:57:54;37.40;;;33.65;;
22947;SDS011;11640;52.520;13.456;2022-08-19T03:02:58;35.25;;;31.60;;
22947;SDS011;11640;52.520;13.456;2022-08-19T03:08:01;34.42;;;31.13;;
22947;SDS011;11640;52.520;13.456;2022-08-19T03:13:04;31.95;;;28.58;;
22947;SDS011;11640;52.520;13.456;2022-08-19T03:18:06;30.52;;;27.52;;
22947;SDS011;11640;52.520;13.456;2022-08-19T03:23:08;26.33;;;23.85;;
22947;SDS011;11640;52.520;13.456;2022-08-19T03:28:12;25.45;;;22.95;;
22947;SDS011;11640;52.520;13.456;2022-08-19T03:33:16;26.80;;;24.02;;
22947;SDS011;11640;52.520;13.456;2022-08-19T03:38:28;26.00;;;23.35;;
22947;SDS011;11640;52.520;13.456;2022-08-19T03:43:30;27.95;;;24.27;;
22947;SDS011;11640;52.520;13.456;2022-08-19T03:48:33;26.15;;;23.52;;
22947;SDS011;11640;52.520;13.456;2022-08-19T03:53:35;25.60;;;23.05;;
22947;SDS011;11640;52.520;13.456;2022-08-19T03:58:37;26.73;;;24.20;;
22947;SDS011;11640;52.520;13.456;2022-08-19T04:03:39;24.80;;;22.40;;
22947;SDS011;11640;52.520;13.456;2022-08-19T04:08:41;25.08;;;22.58;;
22947;SDS011;11640;52.520;13.456;2022-08-19T04:13:44;24.58;;;22.10;;
22947;SDS011;11640;52.520;13.456;2022-08-19T04:18:46;24.48;;;21.90;;
22947;SDS011;11640;52.520;13.456;2022-08-19T04:23:49;26.45;;;23.92;;
22947;SDS011;11640;52.520;13.456;2022-08-19T04:28:52;29.58;;;26.65;;
22947;SDS011;11640;52.520;13.456;2022-08-19T04:33:55;27.40;;;24.80;;
22947;SDS011;11640;52.520;13.456;2022-08-19T04:39:02;25.92;;;23.33;;
22947;SDS011;11640;52.520;13.456;2022-08-19T04:44:09;25.20;;;22.80;;
22947;SDS011;11640;52.520;13.456;2022-08-19T04:49:11;24.90;;;22.50;;
22947;SDS011;11640;52.520;13.456;2022-08-19T04:54:14;24.63;;;22.33;;
22947;SDS011;11640;52.520;13.456;2022-08-19T04:59:38;25.85;;;23.33;;
22947;SDS011;11640;52.520;13.456;2022-08-19T05:04:40;25.00;;;22.40;;
22947;SDS011;11640;52.520;13.456;2022-08-19T05:09:42;26.08;;;23.48;;
22947;SDS011;11640;52.520;13.456;2022-08-19T05:14:59;25.70;;;23.20;;
22947;SDS011;11640;52.520;13.456;2022-08-19T05:20:03;26.48;;;23.92;;
22947;SDS011;11640;52.520;13.456;2022-08-19T05:25:25;26.38;;;23.88;;
22947;SDS011;11640;52.520;13.456;2022-08-19T05:30:27;26.52;;;24.02;;
22947;SDS011;11640;52.520;13.456;2022-08-19T05:35:47;24.95;;;22.52;;
22947;SDS011;11640;52.520;13.456;2022-08-19T05:40:50;24.77;;;22.38;;
22947;SDS011;11640;52.520;13.456;2022-08-19T05:45:52;22.95;;;20.65;;
22947;SDS011;11640;52.520;13.456;2022-08-19T05:50:54;22.67;;;20.45;;
22947;SDS011;11640;52.520;13.456;2022-08-19T05:55:56;24.30;;;21.83;;
22947;SDS011;11640;52.520;13.456;2022-08-19T06:00:59;25.05;;;22.65;;
22947;SDS011;11640;52.520;13.456;2022-08-19T06:06:06;24.27;;;21.90;;
22947;SDS011;11640;52.520;13.456;2022-08-19T06:16:18;24.70;;;22.23;;
22947;SDS011;11640;52.520;13.456;2022-08-19T06:21:24;25.52;;;22.95;;
22947;SDS011;11640;52.520;13.456;2022-08-19T06:26:28;25.95;;;23.42;;
22947;SDS011;11640;52.520;13.456;2022-08-19T06:31:30;25.50;;;23.05;;
22947;SDS011;11640;52.520;13.456;2022-08-19T06:36:41;25.58;;;23.13;;
22947;SDS011;11640;52.520;13.456;2022-08-19T06:41:46;26.15;;;23.40;;
22947;SDS011;11640;52.520;13.456;2022-08-19T06:46:54;25.67;;;22.95;;
22947;SDS011;11640;52.520;13.456;2022-08-19T06:51:57;25.77;;;23.27;;
22947;SDS011;11640;52.520;13.456;2022-08-19T06:57:02;24.17;;;21.88;;
22947;SDS011;11640;52.520;13.456;2022-08-19T07:02:04;25.02;;;22.33;;
22947;SDS011;11640;52.520;13.456;2022-08-19T07:07:09;24.75;;;22.30;;
22947;SDS011;11640;52.520;13.456;2022-08-19T07:12:21;24.58;;;21.20;;
22947;SDS011;11640;52.520;13.456;2022-08-19T07:17:23;24.42;;;22.13;;
22947;SDS011;11640;52.520;13.456;2022-08-19T07:22:25;24.95;;;22.55;;
22947;SDS011;11640;52.520;13.456;2022-08-19T07:27:27;25.85;;;23.25;;
22947;SDS011;11640;52.520;13.456;2022-08-19T07:32:28;24.63;;;22.27;;
22947;SDS011;11640;52.520;13.456;2022-08-19T07:37:32;25.27;;;22.88;;
22947;SDS011;11640;52.520;13.456;2022-08-19T07:42:36;24.48;;;21.98;;
22947;SDS011;11640;52.520;13.456;2022-08-19T07:47:38;24.85;;;22.48;;
22947;SDS011;11640;52.520;13.456;2022-08-19T07:52:50;26.00;;;23.40;;
22947;SDS011;11640;52.520;13.456;2022-08-19T07:57:55;26.00;;;23.60;;
22947;SDS011;11640;52.520;13.456;2022-08-19T08:02:59;26.63;;;24.17;;
22947;SDS011;11640;52.520;13.456;2022-08-19T08:08:01;25.52;;;23.00;;
22947;SDS011;11640;52.520;13.456;2022-08-19T08:13:28;27.13;;;24.63;;
22947;SDS011;11640;52.520;13.456;2022-08-19T08:18:30;26.92;;;23.98;;
22947;SDS011;11640;52.520;13.456;2022-08-19T08:23:32;26.83;;;24.08;;
22947;SDS011;11640;52.520;13.456;2022-08-19T08:28:40;26.27;;;23.67;;
22947;SDS011;11640;52.520;13.456;2022-08-19T08:33:48;26.17;;;23.83;;
22947;SDS011;11640;52.520;13.456;2022-08-19T08:38:50;26.20;;;23.70;;
22947;SDS011;11640;52.520;13.456;2022-08-19T08:43:52;25.42;;;22.88;;
22947;SDS011;11640;52.520;13.456;2022-08-19T08:48:56;26.95;;;24.38;;
22947;SDS011;11640;52.520;13.456;2022-08-19T08:54:13;27.13;;;24.42;;
22947;SDS011;11640;52.520;13.456;2022-08-19T08:59:20;26.63;;;24.15;;
22947;SDS011;11640;52.520;13.456;2022-08-19T09:04:30;29.70;;;26.98;;
22947;SDS011;11640;52.520;13.456;2022-08-19T09:09:34;30.45;;;27.08;;
22947;SDS011;11640;52.520;13.456;2022-08-19T09:14:49;30.30;;;27.40;;
22947;SDS011;11640;52.520;13.456;2022-08-19T09:25:14;31.80;;;28.60;;
22947;SDS011;11640;52.520;13.456;2022-08-19T09:30:27;29.98;;;27.15;;
22947;SDS011;11640;52.520;13.456;2022-08-19T09:35:32;30.92;;;27.83;;
22947;SDS011;11640;52.520;13.456;2022-08-19T09:40:53;28.45;;;25.80;;
22947;SDS011;11640;52.520;13.456;2022-08-19T09:45:56;28.52;;;25.92;;
22947;SDS011;11640;52.520;13.456;2022-08-19T09:51:02;27.23;;;24.63;;
22947;SDS011;11640;52.520;13.456;2022-08-19T09:56:12;26.23;;;23.67;;
22947;SDS011;11640;52.520;13.456;2022-08-19T10:01:15;26.98;;;24.48;;
22947;SDS011;11640;52.520;13.456;2022-08-19T10:06:23;26.58;;;24.00;;
22947;SDS011;11640;52.520;13.456;2022-08-19T10:11:47;25.58;;;23.17;;
22947;SDS011;11640;52.520;13.456;2022-08-19T10:16:55;25.10;;;22.55;;
22947;SDS011;11640;52.520;13.456;2022-08-19T10:22:01;26.40;;;23.92;;
22947;SDS011;11640;52.520;13.456;2022-08-19T10:27:04;25.50;;;22.92;;
22947;SDS011;11640;52.520;13.456;2022-08-19T10:32:09;26.00;;;23.23;;
22947;SDS011;11640;52.520;13.456;2022-08-19T10:37:11;25.73;;;23.23;;
22947;SDS011;11640;52.520;13.456;2022-08-19T10:42:15;25.40;;;23.10;;
22947;SDS011;11640;52.520;13.456;2022-08-19T10:47:19;23.90;;;21.52;;
22947;SDS011;11640;52.520;13.456;2022-08-19T10:52:25;23.38;;;21.08;;
22947;SDS011;11640;52.520;13.456;2022-08-19T10:57:39;23.65;;;21.45;;
22947;SDS011;11640;52.520;13.456;2022-08-19T11:03:02;25.20;;;22.83;;
22947;SDS011;11640;52.520;13.456;2022-08-19T11:08:04;23.75;;;21.52;;
22947;SDS011;11640;52.520;13.456;2022-08-19T11:13:24;23.70;;;21.40;;
22947;SDS011;11640;52.520;13.456;2022-08-19T11:18:26;22.25;;;20.08;;
22947;SDS011;11640;52.520;13.456;2022-08-19T11:23:28;21.77;;;19.73;;
22947;SDS011;11640;52.520;13.456;2022-08-19T11:28:29;23.42;;;21.33;;
22947;SDS011;11640;52.520;13.456;2022-08-19T11:33:31;23.17;;;20.70;;
22947;SDS011;11640;52.520;13.456;2022-08-19T11:38:35;23.58;;;21.27;;
22947;SDS011;11640;52.520;13.456;2022-08-19T11:43:44;22.60;;;20.45;;
22947;SDS011;11640;52.520;13.456;2022-08-19T11:48:46;22.92;;;20.73;;
22947;SDS011;11640;52.520;13.456;2022-08-19T11:53:49;21.65;;;19.60;;
22947;SDS011;11640;52.520;13.456;2022-08-19T11:58:52;21.50;;;19.25;;
22947;SDS011;11640;52.520;13.456;2022-08-19T12:03:55;20.85;;;18.85;;
22947;SDS011;11640;52.520;13.456;2022-08-19T12:09:03;21.10;;;19.00;;
22947;SDS011;11640;52.520;13.456;2022-08-19T12:14:09;19.80;;;17.83;;
22947;SDS011;11640;52.520;13.456;2022-08-19T12:19:15;19.27;;;17.40;;
22947;SDS011;11640;52.520;13.456;2022-08-19T12:24:22;19.27;;;17.33;;
22947;SDS011;11640;52.520;13.456;2022-08-19T12:29:25;17.10;;;15.40;;
22947;SDS011;11640;52.520;13.456;2022-08-19T12:34:30;16.77;;;15.20;;
22947;SDS011;11640;52.520;13.456;2022-08-19T12:39:34;16.35;;;14.65;;
22947;SDS011;11640;52.520;13.456;2022-08-19T12:44:41;15.55;;;13.98;;
22947;SDS011;11640;52.520;13.456;2022-08-19T12:49:44;15.52;;;13.93;;
22947;SDS011;11640;52.520;13.456;2022-08-19T12:54:55;15.85;;;14.10;;
22947;SDS011;11640;52.520;13.456;2022-08-19T12:59:59;16.15;;;14.65;;
22947;SDS011;11640;52.520;13.456;2022-08-19T13:05:09;15.70;;;14.13;;
22947;SDS011;11640;52.520;13.456;2022-08-19T13:10:14;16.05;;;14.45;;
22947;SDS011;11640;52.520;13.456;2022-08-19T13:15:18;16.95;;;15.45;;
22947;SDS011;11640;52.520;13.456;2022-08-19T13:20:24;16.52;;;14.93;;
22947;SDS011;11640;52.520;13.456;2022-08-19T13:25:27;17.77;;;15.30;;
22947;SDS011;11640;52.520;13.456;2022-08-19T13:30:29;18.83;;;17.02;;
22947;SDS011;11640;52.520;13.456;2022-08-19T13:35:51;17.73;;;16.02;;
22947;SDS011;11640;52.520;13.456;2022-08-19T13:41:03;17.80;;;16.00;;
22947;SDS011;11640;52.520;13.456;2022-08-19T13:46:11;18.50;;;16.80;;
22947;SDS011;11640;52.520;13.456;2022-08-19T13:51:15;17.92;;;16.10;;
22947;SDS011;11640;52.520;13.456;2022-08-19T13:56:19;17.73;;;16.02;;
22947;SDS011;11640;52.520;13.456;2022-08-19T14:01:26;18.20;;;16.50;;
22947;SDS011;11640;52.520;13.456;2022-08-19T14:06:28;17.88;;;16.27;;
22947;SDS011;11640;52.520;13.456;2022-08-19T14:11:30;17.90;;;16.20;;
22947;SDS011;11640;52.520;13.456;2022-08-19T14:16:32;18.30;;;16.40;;
22947;SDS011;11640;52.520;13.456;2022-08-19T14:21:34;17.40;;;15.80;;
22947;SDS011;11640;52.520;13.456;2022-08-19T14:26:41;18.83;;;16.95;;
22947;SDS011;11640;52.520;13.456;2022-08-19T14:31:43;18.52;;;16.88;;
22947;SDS011;11640;52.520;13.456;2022-08-19T14:36:45;18.27;;;16.58;;
22947;SDS011;11640;52.520;13.456;2022-08-19T14:41:50;17.75;;;15.95;;
22947;SDS011;11640;52.520;13.456;2022-08-19T14:46:52;18.23;;;16.52;;
22947;SDS011;11640;52.520;13.456;2022-08-19T14:51:54;17.00;;;15.40;;
22947;SDS011;11640;52.520;13.456;2022-08-19T14:56:57;16.13;;;14.52;;
22947;SDS011;11640;52.520;13.456;2022-08-19T15:01:59;16.65;;;15.15;;
22947;SDS011;11640;52.520;13.456;2022-08-19T15:07:21;16.02;;;14.50;;
22947;SDS011;11640;52.520;13.456;2022-08-19T15:12:28;16.60;;;15.00;;
22947;SDS011;11640;52.520;13.456;2022-08-19T15:17:30;15.65;;;14.15;;
22947;SDS011;11640;52.520;13.456;2022-08-19T15:22:46;15.43;;;14.02;;
22947;SDS011;11640;52.520;13.456;2022-08-19T15:27:48;15.63;;;13.65;;
22947;SDS011;11640;52.520;13.456;2022-08-19T15:32:51;15.82;;;14.05;;
22947;SDS011;11640;52.520;13.456;2022-08-19T15:37:55;15.52;;;13.93;;
22947;SDS011;11640;52.520;13.456;2022-08-19T15:42:58;15.18;;;13.68;;
22947;SDS011;11640;52.520;13.456;2022-08-19T15:48:00;16.73;;;15.10;;
22947;SDS011;11640;52.520;13.456;2022-08-19T15:53:04;15.02;;;13.52;;
22947;SDS011;11640;52.520;13.456;2022-08-19T15:58:10;16.00;;;14.27;;
22947;SDS011;11640;52.520;13.456;2022-08-19T16:03:32;15.82;;;14.30;;
22947;SDS011;11640;52.520;13.456;2022-08-19T16:08:56;16.40;;;14.80;;
22947;SDS011;11640;52.520;13.456;2022-08-19T16:14:00;15.50;;;14.10;;
22947;SDS011;11640;52.520;13.456;2022-08-19T16:19:04;16.83;;;15.23;;
22947;SDS011;11640;52.520;13.456;2022-08-19T16:24:13;16.17;;;14.60;;
22947;SDS011;11640;52.520;13.456;2022-08-19T16:29:18;16.92;;;15.20;;
22947;SDS011;11640;52.520;13.456;2022-08-19T16:34:34;17.70;;;15.90;;
22947;SDS011;11640;52.520;13.456;2022-08-19T16:39:38;19.02;;;17.17;;
22947;SDS011;11640;52.520;13.456;2022-08-19T16:44:46;18.85;;;16.58;;
22947;SDS011;11640;52.520;13.456;2022-08-19T16:49:50;18.85;;;16.95;;
22947;SDS011;11640;52.520;13.456;2022-08-19T16:54:55;18.65;;;16.85;;
22947;SDS011;11640;52.520;13.456;2022-08-19T16:59:57;19.98;;;17.98;;
22947;SDS011;11640;52.520;13.456;2022-08-19T17:04:59;18.75;;;16.60;;
22947;SDS011;11640;52.520;13.456;2022-08-19T17:10:02;19.15;;;17.23;;
22947;SDS011;11640;52.520;13.456;2022-08-19T17:15:05;19.27;;;17.45;;
22947;SDS011;11640;52.520;13.456;2022-08-19T17:20:11;19.98;;;18.08;;
22947;SDS011;11640;52.520;13.456;2022-08-19T17:25:13;18.73;;;16.92;;
22947;SDS011;11640;52.520;13.456;2022-08-19T17:30:16;18.75;;;17.00;;
22947;SDS011;11640;52.520;13.456;2022-08-19T17:35:18;18.20;;;16.48;;
22947;SDS011;11640;52.520;13.456;2022-08-19T17:40:24;18.67;;;16.92;;
22947;SDS011;11640;52.520;13.456;2022-08-19T17:45:30;17.80;;;16.05;;
22947;SDS011;11640;52.520;13.456;2022-08-19T17:50:32;16.13;;;14.63;;
22947;SDS011;11640;52.520;13.456;2022-08-19T17:55:35;16.90;;;15.20;;
22947;SDS011;11640;52.520;13.456;2022-08-19T18:00:37;16.73;;;15.07;;
22947;SDS011;11640;52.520;13.456;2022-08-19T18:05:54;18.20;;;16.35;;
22947;SDS011;11640;52.520;13.456;2022-08-19T18:10:57;15.80;;;14.20;;
22947;SDS011;11640;52.520;13.456;2022-08-19T18:16:00;15.05;;;13.50;;
22947;SDS011;11640;52.520;13.456;2022-08-19T18:21:03;14.45;;;12.95;;
22947;SDS011;11640;52.520;13.456;2022-08-19T18:26:06;15.48;;;13.77;;
22947;SDS011;11640;52.520;13.456;2022-08-19T18:31:08;15.73;;;12.75;;
22947;SDS011;11640;52.520;13.456;2022-08-19T18:36:10;16.98;;;14.60;;
22947;SDS011;11640;52.520;13.456;2022-08-19T18:41:12;13.50;;;12.20;;
22947;SDS011;11640;52.520;13.456;2022-08-19T18:46:32;14.00;;;12.60;;
22947;SDS011;11640;52.520;13.456;2022-08-19T18:52:04;13.35;;;11.80;;
22947;SDS011;11640;52.520;13.456;2022-08-19T18:57:06;13.82;;;12.45;;
22947;SDS011;11640;52.520;13.456;2022-08-19T19:02:08;14.68;;;13.07;;
22947;SDS011;11640;52.520;13.456;2022-08-19T19:07:13;15.40;;;13.80;;
22947;SDS011;11640;52.520;13.456;2022-08-19T19:12:18;16.10;;;14.60;;
22947;SDS011;11640;52.520;13.456;2022-08-19T19:17:20;16.45;;;14.82;;
22947;SDS011;11640;52.520;13.456;2022-08-19T19:22:28;16.05;;;14.55;;
22947;SDS011;11640;52.520;13.456;2022-08-19T19:27:30;14.60;;;13.10;;
22947;SDS011;11640;52.520;13.456;2022-08-19T19:32:32;16.00;;;14.40;;
22947;SDS011;11640;52.520;13.456;2022-08-19T19:37:39;16.63;;;14.95;;
22947;SDS011;11640;52.520;13.456;2022-08-19T19:42:43;18.27;;;16.25;;
22947;SDS011;11640;52.520;13.456;2022-08-19T19:47:47;20.38;;;18.42;;
22947;SDS011;11640;52.520;13.456;2022-08-19T19:52:50;19.77;;;17.75;;
22947;SDS011;11640;52.520;13.456;2022-08-19T19:57:52;19.98;;;17.95;;
22947;SDS011;11640;52.520;13.456;2022-08-19T20:02:55;19.48;;;17.58;;
22947;SDS011;11640;52.520;13.456;2022-08-19T20:07:57;20.75;;;18.58;;
22947;SDS011;11640;52.520;13.456;2022-08-19T20:13:19;20.15;;;18.05;;
22947;SDS011;11640;52.520;13.456;2022-08-19T20:18:21;18.85;;;17.05;;
22947;SDS011;11640;52.520;13.456;2022-08-19T20:23:24;21.08;;;18.98;;
22947;SDS011;11640;52.520;13.456;2022-08-19T20:28:26;19.95;;;17.85;;
22947;SDS011;11640;52.520;13.456;2022-08-19T20:33:28;20.73;;;18.63;;
22947;SDS011;11640;52.520;13.456;2022-08-19T20:38:31;21.95;;;19.40;;
22947;SDS011;11640;52.520;13.456;2022-08-19T20:43:35;20.70;;;18.70;;
22947;SDS011;11640;52.520;13.456;2022-08-19T20:48:38;19.10;;;17.10;;
22947;SDS011;11640;52.520;13.456;2022-08-19T20:53:42;20.63;;;18.63;;
22947;SDS011;11640;52.520;13.456;2022-08-19T20:58:45;22.13;;;19.92;;
22947;SDS011;11640;52.520;13.456;2022-08-19T21:03:54;20.95;;;18.85;;
22947;SDS011;11640;52.520;13.456;2022-08-19T21:08:56;21.23;;;19.02;;
22947;SDS011;11640;52.520;13.456;2022-08-19T21:13:58;17.55;;;15.85;;
22947;SDS011;11640;52.520;13.456;2022-08-19T21:19:00;14.13;;;12.80;;
22947;SDS011;11640;52.520;13.456;2022-08-19T21:24:02;15.38;;;13.95;;
22947;SDS011;11640;52.520;13.456;2022-08-19T21:29:05;14.70;;;13.30;;
22947;SDS011;11640;52.520;13.456;2022-08-19T21:34:07;15.07;;;13.35;;
22947;SDS011;11640;52.520;13.456;2022-08-19T21:39:09;17.63;;;15.93;;
22947;SDS011;11640;52.520;13.456;2022-08-19T21:44:11;17.63;;;15.82;;
22947;SDS011;11640;52.520;13.456;2022-08-19T21:49:13;19.25;;;17.45;;
22947;SDS011;11640;52.520;13.456;2022-08-19T21:54:14;18.52;;;16.73;;
22947;SDS011;11640;52.520;13.456;2022-08-19T21:59:16;19.17;;;17.27;;
22947;SDS011;11640;52.520;13.456;2022-08-19T22:04:18;18.70;;;16.90;;
22947;SDS011;11640;52.520;13.456;2022-08-19T22:09:20;18.10;;;16.40;;
22947;SDS011;11640;52.520;13.456;2022-08-19T22:14:22;19.80;;;17.80;;
22947;SDS011;11640;52.520;13.456;2022-08-19T22:19:24;19.88;;;17.88;;
22947;SDS011;11640;52.520;13.456;2022-08-19T22:24:26;21.10;;;18.95;;
22947;SDS011;11640;52.520;13.456;2022-08-19T22:29:28;21.88;;;19.73;;
22947;SDS011;11640;52.520;13.456;2022-08-19T22:34:34;24.95;;;22.48;;
22947;SDS011;11640;52.520;13.456;2022-08-19T22:39:36;28.35;;;25.30;;
22947;SDS011;11640;52.520;13.456;2022-08-19T22:44:38;30.00;;;26.77;;
22947;SDS011;11640;52.520;13.456;2022-08-19T22:49:39;27.83;;;24.90;;
22947;SDS011;11640;52.520;13.456;2022-08-19T22:54:42;32.80;;;29.35;;
22947;SDS011;11640;52.520;13.456;2022-08-19T22:59:50;30.25;;;27.08;;
22947;SDS011;11640;52.520;13.456;2022-08-19T23:04:54;29.85;;;26.80;;
22947;SDS011;11640;52.520;13.456;2022-08-19T23:09:56;30.98;;;27.58;;
22947;SDS011;11640;52.520;13.456;2022-08-19T23:15:03;30.40;;;27.27;;
22947;SDS011;11640;52.520;13.456;2022-08-19T23:20:09;33.10;;;29.60;;
22947;SDS011;11640;52.520;13.456;2022-08-19T23:25:15;29.80;;;26.75;;
22947;SDS011;11640;52.520;13.456;2022-08-19T23:30:19;31.27;;;27.95;;
22947;SDS011;11640;52.520;13.456;2022-08-19T23:35:30;33.13;;;29.63;;
22947;SDS011;11640;52.520;13.456;2022-08-19T23:40:35;31.38;;;28.17;;
22947;SDS011;11640;52.520;13.456;2022-08-19T23:45:39;32.70;;;29.33;;
22947;SDS011;11640;52.520;13.456;2022-08-19T23:50:51;32.50;;;29.10;;
22947;SDS011;11640;52.520;13.456;2022-08-19T23:55:54;35.17;;;31.55;;
